KESF/ESF METAR and TAF weather

Enter ICAO airport designator
Station Type Date Time Source
KESF METAR 2020/12/06 01:29 UTC NOAA

KESF 060129Z AUTO 00000KT 1SM BR VV002 06/05 A3019 RMK AO2 T00560050


Station Type Date Time Source
KESF Decoded METAR 2020/12/06 01:29 UTC NOAA

ALEXANDRIA ESLER RGNL AIRPORT , LA, United States (KESF) 31-24N 092-18W 28M
Dec 05, 2020 - 08:29 PM EST / 2020.12.06 0129 UTC
Wind: Calm:0
Visibility: 1 mile(s):0
Sky conditions: obscured
Weather: mist
Temperature: 42.1 F (5.6 C)
Dew Point: 41.0 F (5.0 C)
Relative Humidity: 95%
Pressure (altimeter): 30.19 in. Hg (1022 hPa)
ob: KESF 060129Z AUTO 00000KT 1SM BR VV002 06/05 A3019 RMK AO2 T00560050
cycle: 1

Station Type Date Time Source
KESF TAF UTC NOAA

Error!

Example: see airport list